createdAt,value
2019-04-22T00:01:24.437Z,17.70
2019-04-22T00:03:56.566Z,17.70
2019-04-22T00:06:48.420Z,17.60
2019-04-22T00:09:19.076Z,17.50
2019-04-22T00:11:46.989Z,17.50
2019-04-22T00:14:14.554Z,17.50
2019-04-22T00:19:22.723Z,17.40
2019-04-22T00:21:50.185Z,17.40
2019-04-22T00:24:18.806Z,17.50
2019-04-22T00:26:49.958Z,17.30
2019-04-22T00:29:46.184Z,17.30
2019-04-22T00:31:53.057Z,17.30
2019-04-22T00:34:27.004Z,17.30
2019-04-22T00:37:02.595Z,17.30
2019-04-22T00:39:37.196Z,17.20
2019-04-22T00:42:04.579Z,17.20
2019-04-22T00:44:41.063Z,17.10
2019-04-22T00:47:13.951Z,17.10
2019-04-22T00:50:09.290Z,17.10
2019-04-22T00:52:12.456Z,17.00
2019-04-22T00:54:43.948Z,17.00
2019-04-22T00:57:12.285Z,16.90
2019-04-22T00:59:37.489Z,16.90
2019-04-22T01:02:18.495Z,16.80
2019-04-22T01:07:13.081Z,16.80
2019-04-22T01:09:46.401Z,16.80
2019-04-22T01:12:13.580Z,16.80
2019-04-22T01:14:41.758Z,16.70
2019-04-22T01:17:11.595Z,16.70
2019-04-22T01:19:52.612Z,16.60
2019-04-22T01:22:17.465Z,16.70
2019-04-22T01:24:45.886Z,16.60
2019-04-22T01:27:08.149Z,16.60
2019-04-22T01:29:38.601Z,16.70
2019-04-22T01:31:56.374Z,16.70
2019-04-22T01:34:40.438Z,16.70
2019-04-22T01:37:20.215Z,16.60
2019-04-22T01:39:57.570Z,16.60
2019-04-22T01:42:30.882Z,16.50
2019-04-22T01:44:56.727Z,16.40
2019-04-22T01:47:32.045Z,16.40
2019-04-22T01:49:59.802Z,16.30
2019-04-22T01:52:32.104Z,16.30
2019-04-22T01:55:04.438Z,16.10
2019-04-22T01:57:28.851Z,16.10
2019-04-22T01:59:59.169Z,16.00
2019-04-22T02:02:35.392Z,15.90
2019-04-22T02:05:04.558Z,15.80
2019-04-22T02:07:38.131Z,15.80
2019-04-22T02:10:07.443Z,15.80
2019-04-22T02:12:43.229Z,15.70
2019-04-22T02:15:09.185Z,15.60
2019-04-22T02:17:37.162Z,15.50
2019-04-22T02:23:19.331Z,15.40
2019-04-22T02:25:34.526Z,15.30
2019-04-22T02:28:05.168Z,15.30
2019-04-22T02:30:54.324Z,15.20
2019-04-22T02:33:30.721Z,15.20
2019-04-22T02:38:20.053Z,15.00
2019-04-22T02:40:56.226Z,15.00
2019-04-22T02:43:30.843Z,14.90
2019-04-22T02:45:57.619Z,14.80
2019-04-22T02:48:26.087Z,14.70
2019-04-22T02:50:51.849Z,14.60
2019-04-22T02:53:30.054Z,14.60
2019-04-22T02:55:51.217Z,14.50
2019-04-22T02:58:27.249Z,14.50
2019-04-22T03:00:58.911Z,14.40
2019-04-22T03:05:55.580Z,14.30
2019-04-22T03:08:23.966Z,14.20
2019-04-22T03:13:35.449Z,14.10
2019-04-22T03:16:01.232Z,14.10
2019-04-22T03:18:29.144Z,14.00
2019-04-22T03:20:58.787Z,14.00
2019-04-22T03:23:36.902Z,14.00
2019-04-22T03:26:12.413Z,14.00
2019-04-22T03:28:32.930Z,13.90
2019-04-22T03:31:31.683Z,13.90
2019-04-22T03:33:40.123Z,13.90
2019-04-22T03:36:29.680Z,13.80
2019-04-22T03:38:54.375Z,13.80
2019-04-22T03:41:18.357Z,13.80
2019-04-22T03:43:54.246Z,13.80
2019-04-22T03:46:14.788Z,13.70
2019-04-22T03:48:45.824Z,13.70
2019-04-22T03:53:55.483Z,13.70
2019-04-22T03:56:47.302Z,13.60
2019-04-22T03:58:52.752Z,13.60
2019-04-22T04:01:18.409Z,13.50
2019-04-22T04:03:51.025Z,13.50
2019-04-22T04:06:20.662Z,13.50
2019-04-22T04:11:25.100Z,13.40
2019-04-22T04:13:53.565Z,13.30
2019-04-22T04:16:19.504Z,13.30
2019-04-22T04:19:02.603Z,13.30
2019-04-22T04:24:29.165Z,13.20
2019-04-22T04:26:37.370Z,13.20
2019-04-22T04:29:05.961Z,13.20
2019-04-22T04:31:32.668Z,13.20
2019-04-22T04:34:00.432Z,13.10
2019-04-22T04:36:28.670Z,13.10
2019-04-22T04:44:01.616Z,13.00
2019-04-22T04:51:32.942Z,13.00
2019-04-22T04:54:13.301Z,12.90
2019-04-22T04:59:16.715Z,13.00
2019-04-22T05:01:35.993Z,12.90
2019-04-22T05:04:14.696Z,13.00
2019-04-22T05:06:49.165Z,13.00
2019-04-22T05:11:49.938Z,13.10
2019-04-22T05:16:42.006Z,13.00
2019-04-22T05:19:07.602Z,13.10
2019-04-22T05:21:53.356Z,13.10
2019-04-22T05:24:09.541Z,13.20
2019-04-22T05:26:44.791Z,13.20
2019-04-22T05:29:11.123Z,13.30
2019-04-22T05:31:37.490Z,13.30
2019-04-22T05:34:08.160Z,13.40
2019-04-22T05:36:42.631Z,13.40
2019-04-22T05:39:32.683Z,13.50
2019-04-22T05:41:43.399Z,13.60
2019-04-22T05:44:14.433Z,13.70
2019-04-22T05:46:45.673Z,13.90
2019-04-22T05:49:33.430Z,14.00
2019-04-22T05:51:41.953Z,14.20
2019-04-22T05:54:14.748Z,14.30
2019-04-22T05:56:40.767Z,14.50
2019-04-22T05:59:19.093Z,14.70
2019-04-22T06:04:15.950Z,15.00
2019-04-22T06:06:46.792Z,15.20
2019-04-22T06:09:14.678Z,15.30
2019-04-22T06:11:37.289Z,15.50
2019-04-22T06:14:19.122Z,15.60
2019-04-22T06:16:50.322Z,15.70
2019-04-22T06:19:18.549Z,15.90
2019-04-22T06:21:50.022Z,16.00
2019-04-22T06:24:33.848Z,16.20
2019-04-22T06:29:25.251Z,16.40
2019-04-22T06:32:22.352Z,16.60
2019-04-22T06:34:30.635Z,16.70
2019-04-22T06:37:05.085Z,16.80
2019-04-22T06:39:34.321Z,17.00
2019-04-22T06:42:06.907Z,17.10
2019-04-22T06:44:29.617Z,17.20
2019-04-22T06:47:00.094Z,17.30
2019-04-22T06:49:31.949Z,17.60
2019-04-22T06:52:10.615Z,17.70
2019-04-22T06:54:32.585Z,17.80
2019-04-22T06:57:04.293Z,17.90
2019-04-22T06:59:33.072Z,18.00
2019-04-22T07:02:11.078Z,18.20
2019-04-22T07:04:33.698Z,18.30
2019-04-22T07:07:08.411Z,18.50
2019-04-22T07:09:42.771Z,18.60
2019-04-22T07:12:11.678Z,18.70
2019-04-22T07:14:35.544Z,18.80
2019-04-22T07:17:08.627Z,18.90
2019-04-22T07:19:40.996Z,19.10
2019-04-22T07:22:13.016Z,19.20
2019-04-22T07:27:13.026Z,19.40
2019-04-22T07:29:50.725Z,19.50
2019-04-22T07:32:17.195Z,19.60
2019-04-22T07:34:47.315Z,19.70
2019-04-22T07:39:45.866Z,19.90
2019-04-22T07:42:19.221Z,20.00
2019-04-22T07:44:52.881Z,20.20
2019-04-22T07:49:50.949Z,20.40
2019-04-22T07:52:22.926Z,20.70
2019-04-22T07:54:52.809Z,20.80
2019-04-22T07:59:57.569Z,21.10
2019-04-22T08:02:26.658Z,21.30
2019-04-22T08:05:07.473Z,21.50
2019-04-22T08:07:24.182Z,21.70
2019-04-22T08:09:59.731Z,21.90
2019-04-22T08:12:28.107Z,22.10
2019-04-22T08:20:02.689Z,22.90
2019-04-22T08:22:27.422Z,23.20
2019-04-22T08:25:00.263Z,23.60
2019-04-22T08:27:31.718Z,24.10
2019-04-22T08:30:07.019Z,24.60
2019-04-22T08:32:37.892Z,25.10
2019-04-22T08:35:11.174Z,25.70
2019-04-22T08:40:08.817Z,26.70
2019-04-22T08:42:43.574Z,27.30
2019-04-22T08:45:09.515Z,27.90
2019-04-22T08:47:36.104Z,28.40
2019-04-22T08:50:07.662Z,28.80
2019-04-22T08:52:57.722Z,29.20
2019-04-22T08:55:11.237Z,29.60
2019-04-22T08:58:12.990Z,30.00
2019-04-22T09:00:06.801Z,30.30
2019-04-22T09:02:46.826Z,30.60
2019-04-22T09:05:22.543Z,31.00
2019-04-22T09:08:01.456Z,31.30
2019-04-22T09:10:12.681Z,31.60
2019-04-22T09:15:16.649Z,32.20
2019-04-22T09:17:47.792Z,32.30
2019-04-22T09:20:16.832Z,32.40
2019-04-22T09:22:48.420Z,32.40
2019-04-22T09:25:17.047Z,32.60
2019-04-22T09:27:49.864Z,32.70
2019-04-22T09:30:18.976Z,32.80
2019-04-22T09:32:55.117Z,32.80
2019-04-22T09:35:23.288Z,33.00
2019-04-22T09:38:08.910Z,33.00
2019-04-22T09:40:35.239Z,33.10
2019-04-22T09:42:56.016Z,33.20
2019-04-22T09:45:21.368Z,33.30
2019-04-22T09:48:02.629Z,33.40
2019-04-22T09:50:29.183Z,33.50
2019-04-22T09:52:54.935Z,33.70
2019-04-22T09:55:21.483Z,33.80
2019-04-22T09:57:58.918Z,34.00
2019-04-22T10:00:26.931Z,34.20
2019-04-22T10:03:02.214Z,34.30
2019-04-22T10:08:00.789Z,34.30
2019-04-22T10:10:35.027Z,34.20
2019-04-22T10:13:04.699Z,34.20
2019-04-22T10:15:36.220Z,34.20
2019-04-22T10:18:04.110Z,34.20
2019-04-22T10:20:42.935Z,34.30
2019-04-22T10:23:06.182Z,34.20
2019-04-22T10:25:41.566Z,34.10
2019-04-22T10:28:08.948Z,34.10
2019-04-22T10:30:46.183Z,34.10
2019-04-22T10:33:04.512Z,34.10
2019-04-22T10:35:18.997Z,34.10
2019-04-22T10:37:44.227Z,34.20
2019-04-22T10:40:19.646Z,34.20
2019-04-22T10:42:49.496Z,34.30
2019-04-22T10:45:18.654Z,34.50
2019-04-22T10:47:48.068Z,34.60
2019-04-22T10:50:18.662Z,34.80
2019-04-22T10:52:47.840Z,34.80
2019-04-22T10:55:17.240Z,34.90
2019-04-22T10:57:46.583Z,34.90
2019-04-22T11:00:15.714Z,34.90
2019-04-22T11:02:45.749Z,35.10
2019-04-22T11:05:16.484Z,35.20
2019-04-22T11:07:51.974Z,35.20
2019-04-22T11:10:33.578Z,35.40
2019-04-22T11:12:47.433Z,35.40
2019-04-22T11:15:17.984Z,35.40
2019-04-22T11:17:47.328Z,35.50
2019-04-22T11:20:17.563Z,35.60
2019-04-22T11:22:46.838Z,35.60
2019-04-22T11:25:16.191Z,35.70
2019-04-22T11:27:45.256Z,35.80
2019-04-22T11:30:18.175Z,35.90
2019-04-22T11:32:46.496Z,36.00
2019-04-22T11:35:16.114Z,36.00
2019-04-22T11:37:46.597Z,36.00
2019-04-22T11:40:24.381Z,36.00
2019-04-22T11:42:48.106Z,35.90
2019-04-22T11:45:17.562Z,35.80
2019-04-22T11:47:47.599Z,35.80
2019-04-22T11:50:17.762Z,35.80
2019-04-22T11:52:47.094Z,36.00
2019-04-22T11:55:17.059Z,36.00
2019-04-22T11:57:47.603Z,36.10
2019-04-22T12:00:18.731Z,36.00
2019-04-22T12:02:49.332Z,36.10
2019-04-22T12:05:19.632Z,36.00
2019-04-22T12:08:09.401Z,36.00
2019-04-22T12:10:46.922Z,36.10
2019-04-22T12:13:10.207Z,36.10
2019-04-22T12:15:40.637Z,36.30
2019-04-22T12:18:11.197Z,36.40
2019-04-22T12:20:41.453Z,36.50
2019-04-22T12:23:11.142Z,36.50
2019-04-22T12:25:48.749Z,36.40
2019-04-22T12:28:12.978Z,36.40
2019-04-22T12:30:43.488Z,36.40
2019-04-22T12:33:14.530Z,36.30
2019-04-22T12:35:44.379Z,36.30
2019-04-22T12:38:15.283Z,36.20
2019-04-22T12:40:51.262Z,36.10
2019-04-22T12:43:18.085Z,36.10
2019-04-22T12:45:45.711Z,36.10
2019-04-22T12:48:15.080Z,36.10
2019-04-22T12:50:46.477Z,36.10
2019-04-22T12:53:19.758Z,36.00
2019-04-22T12:55:46.173Z,35.90
2019-04-22T12:58:15.768Z,35.80
2019-04-22T13:00:44.978Z,35.80
2019-04-22T13:03:14.297Z,35.70
2019-04-22T13:05:45.064Z,35.60
2019-04-22T13:08:14.163Z,35.60
2019-04-22T13:10:53.361Z,35.50
2019-04-22T13:13:15.315Z,35.50
2019-04-22T13:15:44.789Z,35.50
2019-04-22T13:18:26.987Z,35.50
2019-04-22T13:20:44.721Z,35.50
2019-04-22T13:23:13.875Z,35.50
2019-04-22T13:25:43.049Z,35.50
2019-04-22T13:28:13.305Z,35.50
2019-04-22T13:30:42.541Z,35.60
2019-04-22T13:33:12.638Z,35.60
2019-04-22T13:35:41.983Z,35.70
2019-04-22T13:38:11.161Z,35.60
2019-04-22T13:40:55.829Z,35.60
2019-04-22T13:43:11.407Z,35.60
2019-04-22T13:45:40.847Z,35.40
2019-04-22T13:48:29.210Z,35.40
2019-04-22T13:51:14.810Z,35.30
2019-04-22T13:53:47.963Z,35.10
2019-04-22T13:56:03.163Z,35.00
2019-04-22T13:58:26.770Z,34.90
2019-04-22T14:00:44.705Z,34.70
2019-04-22T14:03:34.319Z,34.60
2019-04-22T14:06:06.902Z,34.40
2019-04-22T14:08:37.450Z,34.40
2019-04-22T14:11:19.514Z,34.20
2019-04-22T14:13:37.787Z,34.00
2019-04-22T14:16:07.049Z,34.00
2019-04-22T14:18:37.047Z,33.90
2019-04-22T14:21:06.955Z,33.90
2019-04-22T14:23:36.324Z,33.80
2019-04-22T14:26:05.413Z,33.70
2019-04-22T14:28:35.509Z,33.40
2019-04-22T14:31:06.451Z,33.20
2019-04-22T14:33:36.309Z,32.70
2019-04-22T14:36:05.562Z,32.50
2019-04-22T14:38:35.160Z,32.10
2019-04-22T14:41:05.976Z,31.90
2019-04-22T14:44:30.142Z,31.70
2019-04-22T14:46:35.043Z,31.50
2019-04-22T14:48:57.137Z,31.20
2019-04-22T14:51:27.560Z,31.00
2019-04-22T14:53:56.710Z,30.80
2019-04-22T14:56:10.359Z,30.60
2019-04-22T14:58:40.758Z,30.50
2019-04-22T15:01:10.858Z,30.40
2019-04-22T15:03:42.762Z,30.20
2019-04-22T15:06:10.680Z,30.10
2019-04-22T15:08:39.920Z,30.00
2019-04-22T15:11:10.850Z,30.00
2019-04-22T15:13:41.189Z,29.90
2019-04-22T15:16:27.843Z,29.70
2019-04-22T15:18:59.935Z,29.40
2019-04-22T15:21:30.074Z,29.50
2019-04-22T15:24:00.749Z,29.50
2019-04-22T15:26:30.709Z,29.40
2019-04-22T15:28:59.962Z,29.30
2019-04-22T15:31:31.342Z,29.20
2019-04-22T15:34:00.737Z,29.10
2019-04-22T15:36:30.497Z,29.00
2019-04-22T15:38:59.696Z,29.00
2019-04-22T15:41:28.845Z,28.90
2019-04-22T15:43:57.851Z,28.80
2019-04-22T15:46:27.830Z,28.70
2019-04-22T15:48:57.994Z,28.70
2019-04-22T15:51:27.023Z,28.70
2019-04-22T15:53:56.253Z,28.60
2019-04-22T15:56:26.562Z,28.60
2019-04-22T15:58:55.822Z,28.60
2019-04-22T16:01:28.828Z,28.50
2019-04-22T16:03:56.527Z,28.50
2019-04-22T16:06:26.165Z,28.40
2019-04-22T16:08:55.975Z,28.40
2019-04-22T16:11:25.202Z,28.40
2019-04-22T16:13:54.744Z,28.30
2019-04-22T16:16:24.803Z,28.30
2019-04-22T16:18:54.256Z,28.10
2019-04-22T16:21:33.794Z,28.10
2019-04-22T16:24:02.563Z,28.00
2019-04-22T16:26:40.253Z,28.00
2019-04-22T16:29:11.640Z,27.80
2019-04-22T16:31:40.892Z,27.80
2019-04-22T16:34:11.278Z,27.80
2019-04-22T16:36:40.728Z,27.50
2019-04-22T16:39:10.990Z,27.60
2019-04-22T16:41:40.572Z,27.50
2019-04-22T16:44:12.359Z,27.30
2019-04-22T16:46:41.777Z,27.30
2019-04-22T16:49:11.720Z,27.30
2019-04-22T16:51:42.203Z,27.10
2019-04-22T16:54:11.798Z,27.10
2019-04-22T16:56:41.766Z,27.10
2019-04-22T16:59:10.865Z,27.00
2019-04-22T17:01:46.234Z,26.90
2019-04-22T17:04:23.190Z,26.90
2019-04-22T17:06:55.332Z,26.80
2019-04-22T17:09:25.655Z,26.70
2019-04-22T17:11:56.021Z,26.70
2019-04-22T17:14:34.915Z,26.70
2019-04-22T17:16:56.760Z,26.50
2019-04-22T17:19:27.025Z,26.50
2019-04-22T17:21:57.468Z,26.50
2019-04-22T17:24:27.819Z,26.50
2019-04-22T17:26:57.077Z,26.50
2019-04-22T17:29:26.474Z,26.40
2019-04-22T17:32:00.650Z,26.50
2019-04-22T17:34:27.531Z,26.60
2019-04-22T17:36:57.260Z,26.50
2019-04-22T17:39:35.999Z,26.60
2019-04-22T17:42:15.692Z,26.50
2019-04-22T17:44:57.105Z,26.60
2019-04-22T17:47:22.080Z,26.60
2019-04-22T17:50:00.380Z,26.50
2019-04-22T17:52:42.624Z,26.50
2019-04-22T17:54:51.717Z,26.40
2019-04-22T17:57:31.262Z,26.40
2019-04-22T17:59:54.795Z,26.30
2019-04-22T18:02:28.016Z,26.20
2019-04-22T18:04:47.987Z,26.10
2019-04-22T18:07:35.551Z,26.10
2019-04-22T18:15:12.097Z,25.70
2019-04-22T18:17:41.701Z,25.60
2019-04-22T18:20:07.171Z,25.40
2019-04-22T18:22:34.711Z,25.30
2019-04-22T18:25:00.952Z,25.20
2019-04-22T18:27:48.467Z,25.20
2019-04-22T18:30:05.143Z,25.00
2019-04-22T18:32:41.442Z,24.90
2019-04-22T18:35:11.811Z,24.90
2019-04-22T18:37:43.783Z,24.80
2019-04-22T18:40:15.013Z,24.70
2019-04-22T18:42:49.505Z,24.60
2019-04-22T18:45:29.992Z,24.60
2019-04-22T18:47:44.244Z,24.40
2019-04-22T18:50:23.023Z,24.30
2019-04-22T18:52:53.064Z,24.30
2019-04-22T18:55:33.821Z,24.20
2019-04-22T18:58:08.712Z,24.10
2019-04-22T19:00:29.499Z,24.10
2019-04-22T19:03:03.865Z,24.00
2019-04-22T19:05:45.299Z,23.90
2019-04-22T19:08:23.313Z,23.90
2019-04-22T19:16:11.192Z,23.60
2019-04-22T19:21:03.040Z,23.50
2019-04-22T19:23:32.023Z,23.40
2019-04-22T19:26:07.102Z,23.30
2019-04-22T19:28:49.433Z,23.30
2019-04-22T19:31:09.120Z,23.20
2019-04-22T19:33:40.695Z,23.10
2019-04-22T19:36:11.056Z,23.10
2019-04-22T19:38:34.042Z,23.00
2019-04-22T19:41:23.154Z,23.20
2019-04-22T19:43:53.280Z,22.80
2019-04-22T19:46:19.500Z,22.80
2019-04-22T19:48:58.021Z,22.70
2019-04-22T19:51:27.947Z,22.70
2019-04-22T19:53:55.987Z,22.70
2019-04-22T19:56:22.663Z,22.60
2019-04-22T19:59:08.759Z,22.50
2019-04-22T20:01:47.520Z,22.50
2019-04-22T20:04:21.914Z,22.40
2019-04-22T20:06:53.448Z,22.40
2019-04-22T20:09:47.918Z,22.30
2019-04-22T20:12:02.528Z,22.20
2019-04-22T20:14:35.401Z,22.20
2019-04-22T20:17:00.814Z,22.20
2019-04-22T20:19:45.602Z,22.10
2019-04-22T20:22:09.806Z,22.10
2019-04-22T20:24:27.758Z,22.00
2019-04-22T20:27:13.694Z,21.90
2019-04-22T20:29:42.192Z,21.80
2019-04-22T20:32:15.906Z,21.80
2019-04-22T20:34:51.142Z,21.70
2019-04-22T20:37:28.334Z,21.60
2019-04-22T20:39:48.245Z,21.60
2019-04-22T20:42:33.630Z,21.60
2019-04-22T20:44:51.595Z,21.50
2019-04-22T20:47:20.598Z,21.40
2019-04-22T20:49:54.765Z,21.50
2019-04-22T20:54:49.463Z,21.30
2019-04-22T20:57:26.306Z,21.30
2019-04-22T20:59:52.242Z,21.20
2019-04-22T21:02:18.274Z,21.20
2019-04-22T21:04:46.258Z,21.20
2019-04-22T21:07:22.695Z,21.20
2019-04-22T21:09:53.964Z,21.10
2019-04-22T21:12:20.328Z,21.10
2019-04-22T21:15:05.576Z,21.00
2019-04-22T21:17:30.785Z,21.00
2019-04-22T21:20:10.464Z,20.90
2019-04-22T21:22:33.931Z,20.80
2019-04-22T21:25:00.143Z,20.80
2019-04-22T21:27:34.409Z,20.70
2019-04-22T21:29:58.201Z,20.70
2019-04-22T21:32:34.373Z,20.60
2019-04-22T21:35:15.264Z,20.50
2019-04-22T21:37:43.136Z,20.50
2019-04-22T21:40:05.491Z,20.50
2019-04-22T21:42:47.291Z,20.40
2019-04-22T21:45:05.471Z,20.40
2019-04-22T21:47:51.795Z,20.40
2019-04-22T21:50:31.853Z,20.30
2019-04-22T21:52:50.891Z,20.20
2019-04-22T21:55:16.909Z,20.20
2019-04-22T21:58:06.733Z,20.10
2019-04-22T22:00:43.211Z,20.10
2019-04-22T22:03:11.800Z,20.10
2019-04-22T22:05:29.743Z,20.00
2019-04-22T22:07:56.072Z,20.00
2019-04-22T22:10:40.251Z,19.90
2019-04-22T22:13:13.798Z,19.90
2019-04-22T22:15:37.016Z,19.80
2019-04-22T22:18:08.598Z,19.80
2019-04-22T22:20:43.258Z,19.70
2019-04-22T22:23:23.304Z,19.70
2019-04-22T22:25:42.357Z,19.60
2019-04-22T22:28:21.873Z,19.60
2019-04-22T22:30:55.364Z,19.60
2019-04-22T22:33:16.769Z,19.40
2019-04-22T22:35:40.474Z,19.40
2019-04-22T22:38:13.422Z,19.30
2019-04-22T22:40:29.799Z,19.20
2019-04-22T22:42:58.980Z,19.30
2019-04-22T22:45:37.395Z,19.10
2019-04-22T22:48:24.206Z,19.10
2019-04-22T22:50:47.840Z,19.10
2019-04-22T22:53:32.278Z,19.00
2019-04-22T22:55:53.192Z,19.00
2019-04-22T22:58:23.747Z,19.00
2019-04-22T23:00:44.144Z,19.00
2019-04-22T23:03:40.273Z,18.90
2019-04-22T23:05:59.036Z,18.90
2019-04-22T23:08:29.430Z,19.00
2019-04-22T23:11:01.001Z,18.70
2019-04-22T23:13:34.244Z,18.60
2019-04-22T23:15:54.514Z,18.60
2019-04-22T23:18:07.814Z,18.60
2019-04-22T23:20:41.861Z,18.60
2019-04-22T23:23:29.669Z,18.60
2019-04-22T23:25:59.651Z,18.50
2019-04-22T23:28:26.647Z,18.50
2019-04-22T23:31:08.009Z,18.40
2019-04-22T23:36:45.333Z,18.30
2019-04-22T23:39:22.702Z,18.30
2019-04-22T23:41:51.180Z,18.20
2019-04-22T23:44:27.213Z,18.10
2019-04-22T23:47:06.061Z,18.10
2019-04-22T23:49:32.491Z,18.10
2019-04-22T23:52:16.287Z,18.00
2019-04-22T23:54:49.164Z,18.00
2019-04-22T23:57:03.421Z,17.90
